createdAt,value
2018-03-31T00:00:43.895Z,8.87
2018-03-31T00:03:21.030Z,6.30
2018-03-31T00:05:53.775Z,7.33
2018-03-31T00:08:21.133Z,6.93
2018-03-31T00:10:48.104Z,9.57
2018-03-31T00:13:16.182Z,8.57
2018-03-31T00:15:44.939Z,10.07
2018-03-31T00:18:15.871Z,8.43
2018-03-31T00:20:46.157Z,10.67
2018-03-31T00:23:13.215Z,10.70
2018-03-31T00:25:40.905Z,8.13
2018-03-31T00:28:09.247Z,11.30
2018-03-31T00:30:38.355Z,11.20
2018-03-31T00:33:05.011Z,9.97
2018-03-31T00:35:54.220Z,8.27
2018-03-31T00:38:24.063Z,10.63
2018-03-31T00:40:53.367Z,10.60
2018-03-31T00:43:22.452Z,10.93
2018-03-31T00:45:50.387Z,9.77
2018-03-31T00:48:22.715Z,12.23
2018-03-31T00:50:50.451Z,12.37
2018-03-31T00:53:17.842Z,12.67
2018-03-31T00:55:47.803Z,13.73
2018-03-31T00:58:18.776Z,12.70
2018-03-31T01:00:46.087Z,15.83
2018-03-31T01:03:17.511Z,14.03
2018-03-31T01:05:53.083Z,12.63
2018-03-31T01:08:22.123Z,12.43
2018-03-31T01:10:49.217Z,12.30
2018-03-31T01:13:15.648Z,12.83
2018-03-31T01:15:44.008Z,10.07
2018-03-31T01:18:18.504Z,13.97
2018-03-31T01:20:52.882Z,10.20
2018-03-31T01:23:20.934Z,9.87
2018-03-31T01:25:49.151Z,10.00
2018-03-31T01:28:16.524Z,11.10
2018-03-31T01:30:47.486Z,11.70
2018-03-31T01:33:21.280Z,13.90
2018-03-31T01:35:48.628Z,13.00
2018-03-31T01:38:18.715Z,12.40
2018-03-31T01:40:45.771Z,10.70
2018-03-31T01:43:22.463Z,10.43
2018-03-31T01:46:05.418Z,9.63
2018-03-31T01:48:38.073Z,9.90
2018-03-31T01:51:05.864Z,11.40
2018-03-31T01:53:32.124Z,10.97
2018-03-31T01:56:02.588Z,9.87
2018-03-31T01:58:33.966Z,9.90
2018-03-31T02:01:01.351Z,10.73
2018-03-31T02:03:28.855Z,10.17
2018-03-31T02:05:56.167Z,10.60
2018-03-31T02:08:23.542Z,12.07
2018-03-31T02:10:55.539Z,11.83
2018-03-31T02:13:22.895Z,11.70
2018-03-31T02:15:52.327Z,11.87
2018-03-31T02:18:18.931Z,11.50
2018-03-31T02:20:47.091Z,12.93
2018-03-31T02:23:17.048Z,14.10
2018-03-31T02:25:48.282Z,15.37
2018-03-31T02:28:18.692Z,11.27
2018-03-31T02:30:50.040Z,12.67
2018-03-31T02:33:17.959Z,13.60
2018-03-31T02:35:46.287Z,11.97
2018-03-31T02:38:14.506Z,11.00
2018-03-31T02:40:52.105Z,12.27
2018-03-31T02:43:24.491Z,11.33
2018-03-31T02:45:54.582Z,10.40
2018-03-31T02:48:28.036Z,10.80
2018-03-31T02:50:57.118Z,14.33
2018-03-31T02:53:30.608Z,13.93
2018-03-31T02:56:02.679Z,13.13
2018-03-31T02:58:31.855Z,13.57
2018-03-31T03:01:05.019Z,12.07
2018-03-31T03:03:36.260Z,12.17
2018-03-31T03:06:09.410Z,12.70
2018-03-31T03:08:39.748Z,12.73
2018-03-31T03:11:12.651Z,11.73
2018-03-31T03:13:47.163Z,14.03
2018-03-31T03:16:17.951Z,14.53
2018-03-31T03:18:47.151Z,16.50
2018-03-31T03:21:18.172Z,16.23
2018-03-31T03:23:44.564Z,17.00
2018-03-31T03:26:15.483Z,16.63
2018-03-31T03:28:42.604Z,14.47
2018-03-31T03:31:09.696Z,15.33
2018-03-31T03:33:39.923Z,14.13
2018-03-31T03:36:17.364Z,12.43
2018-03-31T03:38:47.051Z,16.23
2018-03-31T03:41:15.447Z,15.00
2018-03-31T03:43:47.875Z,13.87
2018-03-31T03:46:15.167Z,20.73
2018-03-31T03:48:42.539Z,15.20
2018-03-31T03:51:11.578Z,14.90
2018-03-31T03:53:41.405Z,12.23
2018-03-31T03:56:08.687Z,14.33
2018-03-31T03:58:37.162Z,15.13
2018-03-31T04:01:09.823Z,15.30
2018-03-31T04:03:42.131Z,13.57
2018-03-31T04:06:11.859Z,15.27
2018-03-31T04:08:47.772Z,13.90
2018-03-31T04:11:14.900Z,13.00
2018-03-31T04:13:42.007Z,16.00
2018-03-31T04:16:13.095Z,14.23
2018-03-31T04:18:44.240Z,14.67
2018-03-31T04:21:18.943Z,16.07
2018-03-31T04:23:46.238Z,13.70
2018-03-31T04:26:16.985Z,14.00
2018-03-31T04:28:45.403Z,14.87
2018-03-31T04:31:14.400Z,14.10
2018-03-31T04:33:42.564Z,15.57
2018-03-31T04:36:17.551Z,14.00
2018-03-31T04:38:56.232Z,16.90
2018-03-31T04:41:27.223Z,14.47
2018-03-31T04:43:58.733Z,17.07
2018-03-31T04:46:30.668Z,16.97
2018-03-31T04:49:05.570Z,16.50
2018-03-31T04:51:32.315Z,13.77
2018-03-31T04:54:07.939Z,16.10
2018-03-31T04:56:35.112Z,13.63
2018-03-31T04:59:02.210Z,14.70
2018-03-31T05:01:37.735Z,15.13
2018-03-31T05:04:07.991Z,16.63
2018-03-31T05:06:35.048Z,16.47
2018-03-31T05:09:06.094Z,15.13
2018-03-31T05:11:34.986Z,15.10
2018-03-31T05:14:03.042Z,16.50
2018-03-31T05:16:30.487Z,16.03
2018-03-31T05:18:58.759Z,13.80
2018-03-31T05:21:28.791Z,15.40
2018-03-31T05:24:00.084Z,14.33
2018-03-31T05:26:34.311Z,16.73
2018-03-31T05:29:02.815Z,14.03
2018-03-31T05:31:29.725Z,15.00
2018-03-31T05:33:57.519Z,12.50
2018-03-31T05:36:25.059Z,13.73
2018-03-31T05:38:59.094Z,13.73
2018-03-31T05:41:30.135Z,15.20
2018-03-31T05:44:01.047Z,13.60
2018-03-31T05:46:28.260Z,12.80
2018-03-31T05:48:59.463Z,12.20
2018-03-31T05:51:33.505Z,13.13
2018-03-31T05:54:05.255Z,13.00
2018-03-31T05:56:40.997Z,12.70
2018-03-31T05:59:09.391Z,14.90
2018-03-31T06:01:35.711Z,13.57
2018-03-31T06:04:14.219Z,12.40
2018-03-31T06:06:44.418Z,13.07
2018-03-31T06:09:10.706Z,15.20
2018-03-31T06:11:42.936Z,12.30
2018-03-31T06:14:10.079Z,13.40
2018-03-31T06:16:39.367Z,16.63
2018-03-31T06:19:07.706Z,16.70
2018-03-31T06:21:37.611Z,15.30
2018-03-31T06:24:08.044Z,15.00
2018-03-31T06:26:36.467Z,14.60
2018-03-31T06:29:06.212Z,12.43
2018-03-31T06:31:42.261Z,15.60
2018-03-31T06:34:09.360Z,15.50
2018-03-31T06:36:39.109Z,15.23
2018-03-31T06:39:13.803Z,15.27
2018-03-31T06:41:44.173Z,17.50
2018-03-31T06:44:23.907Z,16.10
2018-03-31T06:46:50.732Z,17.40
2018-03-31T06:49:21.669Z,16.97
2018-03-31T06:51:58.765Z,15.20
2018-03-31T06:54:26.100Z,16.90
2018-03-31T06:56:54.223Z,18.13
2018-03-31T06:59:24.335Z,17.77
2018-03-31T07:01:59.050Z,18.23
2018-03-31T07:04:29.427Z,17.20
2018-03-31T07:07:01.380Z,17.00
2018-03-31T07:09:28.765Z,16.50
2018-03-31T07:12:09.514Z,14.43
2018-03-31T07:14:37.728Z,14.70
2018-03-31T07:17:07.522Z,13.03
2018-03-31T07:19:41.354Z,15.50
2018-03-31T07:22:09.255Z,15.30
2018-03-31T07:24:39.356Z,15.77
2018-03-31T07:27:07.350Z,13.53
2018-03-31T07:29:34.292Z,13.73
2018-03-31T07:32:03.399Z,14.83
2018-03-31T07:34:36.125Z,16.03
2018-03-31T07:37:06.128Z,15.90
2018-03-31T07:39:50.101Z,14.20
2018-03-31T07:42:17.251Z,15.00
2018-03-31T07:44:44.307Z,14.40
2018-03-31T07:47:12.640Z,15.10
2018-03-31T07:49:42.321Z,12.93
2018-03-31T07:52:11.524Z,16.50
2018-03-31T07:54:40.466Z,14.17
2018-03-31T07:57:06.756Z,14.47
2018-03-31T07:59:34.588Z,14.83
2018-03-31T08:02:01.949Z,12.87
2018-03-31T08:04:32.156Z,14.00
2018-03-31T08:07:18.244Z,13.50
2018-03-31T08:09:48.302Z,14.63
2018-03-31T08:12:16.362Z,14.07
2018-03-31T08:14:44.491Z,16.00
2018-03-31T08:17:14.796Z,15.13
2018-03-31T08:19:42.671Z,13.07
2018-03-31T08:22:10.119Z,18.07
2018-03-31T08:24:40.221Z,13.33
2018-03-31T08:27:06.512Z,13.07
2018-03-31T08:29:53.747Z,12.43
2018-03-31T08:32:25.875Z,12.83
2018-03-31T08:34:52.368Z,12.50
2018-03-31T08:37:18.847Z,13.50
2018-03-31T08:39:47.715Z,10.57
2018-03-31T08:42:15.805Z,17.00
2018-03-31T08:44:46.196Z,12.57
2018-03-31T08:47:15.285Z,11.50
2018-03-31T08:49:47.524Z,12.30
2018-03-31T08:52:13.878Z,13.70
2018-03-31T08:54:44.611Z,13.97
2018-03-31T08:57:16.163Z,12.53
2018-03-31T08:59:44.468Z,11.53
2018-03-31T09:02:16.599Z,13.00
2018-03-31T09:04:48.735Z,10.97
2018-03-31T09:07:20.856Z,13.00
2018-03-31T09:09:53.039Z,8.63
2018-03-31T09:12:22.547Z,9.87
2018-03-31T09:14:56.839Z,5.73
2018-03-31T09:17:26.026Z,4.60
2018-03-31T09:19:57.311Z,5.43
2018-03-31T09:22:24.158Z,6.87
2018-03-31T09:24:57.504Z,5.70
2018-03-31T09:27:28.922Z,8.50
2018-03-31T09:29:56.758Z,6.50
2018-03-31T09:32:29.097Z,7.20
2018-03-31T09:35:03.855Z,2.30
2018-03-31T09:37:33.251Z,4.40
2018-03-31T09:40:05.561Z,3.60
2018-03-31T09:42:35.473Z,2.10
2018-03-31T09:45:02.556Z,2.10
2018-03-31T09:47:35.147Z,3.30
2018-03-31T09:50:02.271Z,6.73
2018-03-31T09:52:35.508Z,2.23
2018-03-31T09:55:06.588Z,2.83
2018-03-31T09:57:34.943Z,3.03
2018-03-31T10:00:05.446Z,3.50
2018-03-31T10:02:35.560Z,2.23
2018-03-31T10:05:02.587Z,3.90
2018-03-31T10:07:31.799Z,2.27
2018-03-31T10:09:58.868Z,2.70
2018-03-31T10:12:43.267Z,3.70
2018-03-31T10:15:17.730Z,4.40
2018-03-31T10:17:50.767Z,2.60
2018-03-31T10:20:23.095Z,3.60
2018-03-31T10:22:51.840Z,2.90
2018-03-31T10:25:34.088Z,2.50
2018-03-31T10:28:11.876Z,4.57
2018-03-31T10:30:58.524Z,3.43
2018-03-31T10:33:26.885Z,3.00
2018-03-31T10:35:54.003Z,3.77
2018-03-31T10:38:24.443Z,4.50
2018-03-31T10:41:03.538Z,3.10
2018-03-31T10:43:36.727Z,2.83
2018-03-31T10:46:06.928Z,3.40
2018-03-31T10:48:44.231Z,3.03
2018-03-31T10:51:15.844Z,3.33
2018-03-31T10:53:48.788Z,3.00
2018-03-31T10:56:17.012Z,2.80
2018-03-31T10:58:45.991Z,3.30
2018-03-31T11:01:22.144Z,2.80
2018-03-31T11:03:52.587Z,2.90
2018-03-31T11:06:24.303Z,3.97
2018-03-31T11:08:55.727Z,3.23
2018-03-31T11:11:22.875Z,3.20
2018-03-31T11:13:58.795Z,6.13
2018-03-31T11:16:26.735Z,4.27
2018-03-31T11:18:58.771Z,2.87
2018-03-31T11:21:27.939Z,2.40
2018-03-31T11:24:02.987Z,2.47
2018-03-31T11:26:38.319Z,2.47
2018-03-31T11:29:07.779Z,3.03
2018-03-31T11:31:40.807Z,3.37
2018-03-31T11:34:08.736Z,3.43
2018-03-31T11:36:40.491Z,3.53
2018-03-31T11:39:14.359Z,4.60
2018-03-31T11:41:41.574Z,2.77
2018-03-31T11:44:08.019Z,2.43
2018-03-31T11:46:35.156Z,3.03
2018-03-31T11:49:05.820Z,2.83
2018-03-31T11:51:35.991Z,2.57
2018-03-31T11:54:06.494Z,2.73
2018-03-31T11:56:33.044Z,2.47
2018-03-31T11:59:15.382Z,1.90
2018-03-31T12:01:49.018Z,7.20
2018-03-31T12:04:19.397Z,2.30
2018-03-31T12:06:56.023Z,8.27
2018-03-31T12:09:23.231Z,4.30
2018-03-31T12:11:51.277Z,2.50
2018-03-31T12:14:46.764Z,2.00
2018-03-31T12:17:24.283Z,3.00
2018-03-31T12:20:30.307Z,4.40
2018-03-31T12:23:02.451Z,2.50
2018-03-31T12:25:38.846Z,2.70
2018-03-31T12:28:11.092Z,5.43
2018-03-31T12:30:43.746Z,2.17
2018-03-31T12:33:11.821Z,2.00
2018-03-31T12:35:47.075Z,4.00
2018-03-31T12:38:16.144Z,1.57
2018-03-31T12:40:46.300Z,1.30
2018-03-31T12:43:29.000Z,3.63
2018-03-31T12:45:57.081Z,2.30
2018-03-31T12:48:46.880Z,6.40
2018-03-31T12:51:15.280Z,1.90
2018-03-31T12:53:46.356Z,2.20
2018-03-31T12:56:15.428Z,1.10
2018-03-31T12:58:47.239Z,2.70
2018-03-31T13:01:16.407Z,1.10
2018-03-31T13:03:45.326Z,2.20
2018-03-31T13:06:14.629Z,1.20
2018-03-31T13:08:43.318Z,1.47
2018-03-31T13:11:11.225Z,1.03
2018-03-31T13:13:46.579Z,1.17
2018-03-31T13:16:18.438Z,0.80
2018-03-31T13:18:47.047Z,1.40
2018-03-31T13:21:28.730Z,4.97
2018-03-31T13:24:10.316Z,0.97
2018-03-31T13:26:39.863Z,3.40
2018-03-31T13:29:08.839Z,1.00
2018-03-31T13:31:40.391Z,1.40
2018-03-31T13:34:12.831Z,1.83
2018-03-31T13:36:52.702Z,2.70
2018-03-31T13:39:22.384Z,3.17
2018-03-31T13:41:54.756Z,4.10
2018-03-31T13:44:22.972Z,1.70
2018-03-31T13:46:54.395Z,0.97
2018-03-31T13:49:28.692Z,2.00
2018-03-31T13:52:00.412Z,1.00
2018-03-31T13:54:29.507Z,0.80
2018-03-31T13:56:56.621Z,1.87
2018-03-31T13:59:26.227Z,1.37
2018-03-31T14:02:03.119Z,0.70
2018-03-31T14:04:29.664Z,2.03
2018-03-31T14:06:58.747Z,1.17
2018-03-31T14:09:25.910Z,1.43
2018-03-31T14:11:57.331Z,1.20
2018-03-31T14:14:27.301Z,0.80
2018-03-31T14:16:57.467Z,1.50
2018-03-31T14:19:26.186Z,1.50
2018-03-31T14:21:55.449Z,1.00
2018-03-31T14:24:34.718Z,1.73
2018-03-31T14:27:02.168Z,0.87
2018-03-31T14:29:31.363Z,3.03
2018-03-31T14:31:58.671Z,1.00
2018-03-31T14:34:38.703Z,1.17
2018-03-31T14:37:05.801Z,1.95
2018-03-31T14:39:32.308Z,2.97
2018-03-31T14:41:59.461Z,1.35
2018-03-31T14:44:28.921Z,2.33
2018-03-31T14:47:01.110Z,1.47
2018-03-31T14:49:27.628Z,1.23
2018-03-31T14:51:55.944Z,1.07
2018-03-31T14:54:23.056Z,3.10
2018-03-31T14:56:49.607Z,8.87
2018-03-31T14:59:44.510Z,1.37
2018-03-31T15:02:15.750Z,1.80
2018-03-31T15:04:43.327Z,3.53
2018-03-31T15:07:15.668Z,1.70
2018-03-31T15:09:42.084Z,1.20
2018-03-31T15:12:17.009Z,2.10
2018-03-31T15:14:44.511Z,2.90
2018-03-31T15:17:13.392Z,1.57
2018-03-31T15:19:45.212Z,3.83
2018-03-31T15:22:12.428Z,2.00
2018-03-31T15:24:38.867Z,1.57
2018-03-31T15:27:16.476Z,4.50
2018-03-31T15:29:43.739Z,4.27
2018-03-31T15:32:12.135Z,1.73
2018-03-31T15:34:42.912Z,1.43
2018-03-31T15:37:16.012Z,1.70
2018-03-31T15:39:45.325Z,1.60
2018-03-31T15:42:16.156Z,3.37
2018-03-31T15:44:43.408Z,1.37
2018-03-31T15:47:15.264Z,1.60
2018-03-31T15:49:42.749Z,2.00
2018-03-31T15:52:09.923Z,1.20
2018-03-31T15:54:46.932Z,1.60
2018-03-31T15:57:22.383Z,2.93
2018-03-31T15:59:53.665Z,1.80
2018-03-31T16:02:20.317Z,5.07
2018-03-31T16:04:51.662Z,2.03
2018-03-31T16:07:27.753Z,1.93
2018-03-31T16:09:55.752Z,1.70
2018-03-31T16:12:22.059Z,2.30
2018-03-31T16:14:50.602Z,1.50
2018-03-31T16:17:20.968Z,2.07
2018-03-31T16:19:52.103Z,2.07
2018-03-31T16:22:18.681Z,1.83
2018-03-31T16:24:45.116Z,2.00
2018-03-31T16:27:25.999Z,3.30
2018-03-31T16:29:53.498Z,1.27
2018-03-31T16:32:20.008Z,1.10
2018-03-31T16:34:46.592Z,1.17
2018-03-31T16:37:13.720Z,2.63
2018-03-31T16:39:40.947Z,3.17
2018-03-31T16:42:18.745Z,1.90
2018-03-31T16:44:45.812Z,1.73
2018-03-31T16:47:19.304Z,2.90
2018-03-31T16:49:46.332Z,3.80
2018-03-31T16:52:22.540Z,5.83
2018-03-31T16:54:54.886Z,5.70
2018-03-31T16:57:25.607Z,4.30
2018-03-31T16:59:54.567Z,12.57
2018-03-31T17:02:25.124Z,2.07
2018-03-31T17:04:53.367Z,6.10
2018-03-31T17:07:25.174Z,12.43
2018-03-31T17:09:52.413Z,15.63
2018-03-31T17:12:19.779Z,13.40
2018-03-31T17:14:46.402Z,3.70
2018-03-31T17:17:13.951Z,2.90
2018-03-31T17:19:42.177Z,5.73
2018-03-31T17:22:14.307Z,4.33
2018-03-31T17:24:41.381Z,2.40
2018-03-31T17:27:08.900Z,2.50
2018-03-31T17:29:36.107Z,2.03
2018-03-31T17:32:04.559Z,2.37
2018-03-31T17:34:39.058Z,1.50
2018-03-31T17:37:07.883Z,6.17
2018-03-31T17:39:35.254Z,5.00
2018-03-31T17:42:22.392Z,3.27
2018-03-31T17:44:54.680Z,2.00
2018-03-31T17:47:21.483Z,4.30
2018-03-31T17:49:55.967Z,2.93
2018-03-31T17:52:22.543Z,2.13
2018-03-31T17:54:56.226Z,2.87
2018-03-31T17:57:23.739Z,1.50
2018-03-31T17:59:50.903Z,1.80
2018-03-31T18:02:17.232Z,2.70
2018-03-31T18:04:44.300Z,3.33
2018-03-31T18:07:11.483Z,3.97
2018-03-31T18:09:42.871Z,2.93
2018-03-31T18:12:09.312Z,6.10
2018-03-31T18:14:35.783Z,3.97
2018-03-31T18:17:02.314Z,2.67
2018-03-31T18:19:28.791Z,5.00
2018-03-31T18:22:01.691Z,3.73
2018-03-31T18:24:31.855Z,5.67
2018-03-31T18:26:58.878Z,2.50
2018-03-31T18:29:25.746Z,3.60
2018-03-31T18:32:00.255Z,2.70
2018-03-31T18:34:28.023Z,3.63
2018-03-31T18:36:55.114Z,5.23
2018-03-31T18:39:22.382Z,6.67
2018-03-31T18:41:51.447Z,9.40
2018-03-31T18:44:17.732Z,10.53
2018-03-31T18:46:44.780Z,2.73
2018-03-31T18:49:11.912Z,10.47
2018-03-31T18:51:38.350Z,6.70
2018-03-31T18:54:08.538Z,4.20
2018-03-31T18:56:35.654Z,5.10
2018-03-31T18:59:02.747Z,41.07
2018-03-31T19:01:35.879Z,13.30
2018-03-31T19:04:10.694Z,7.87
2018-03-31T19:06:44.867Z,25.57
2018-03-31T19:09:11.735Z,12.50
2018-03-31T19:11:52.612Z,6.60
2018-03-31T19:14:19.690Z,3.67
2018-03-31T19:16:53.611Z,3.13
2018-03-31T19:19:20.772Z,3.70
2018-03-31T19:21:47.863Z,7.37
2018-03-31T19:24:15.638Z,4.43
2018-03-31T19:26:43.697Z,4.10
2018-03-31T19:29:14.598Z,8.63
2018-03-31T19:32:03.715Z,10.10
2018-03-31T19:34:33.167Z,7.27
2018-03-31T19:37:01.967Z,8.37
2018-03-31T19:39:36.407Z,7.30
2018-03-31T19:42:07.054Z,12.77
2018-03-31T19:44:36.136Z,7.90
2018-03-31T19:47:02.393Z,8.50
2018-03-31T19:49:30.032Z,6.80
2018-03-31T19:51:56.863Z,8.17
2018-03-31T19:54:24.051Z,9.93
2018-03-31T19:56:51.207Z,8.43
2018-03-31T19:59:19.731Z,9.77
2018-03-31T20:01:49.527Z,6.97
2018-03-31T20:04:17.600Z,6.90
2018-03-31T20:06:44.829Z,8.03
2018-03-31T20:09:11.931Z,6.93
2018-03-31T20:11:38.367Z,5.77
2018-03-31T20:14:08.630Z,4.87
2018-03-31T20:16:35.807Z,6.97
2018-03-31T20:19:02.935Z,6.13
2018-03-31T20:21:30.111Z,8.50
2018-03-31T20:23:58.036Z,5.33
2018-03-31T20:26:26.579Z,4.67
2018-03-31T20:28:53.812Z,8.93
2018-03-31T20:31:20.090Z,11.00
2018-03-31T20:33:47.999Z,8.90
2018-03-31T20:36:14.547Z,7.13
2018-03-31T20:38:49.156Z,10.03
2018-03-31T20:41:16.429Z,9.53
2018-03-31T20:43:46.971Z,12.90
2018-03-31T20:46:14.974Z,8.37
2018-03-31T20:48:42.223Z,7.37
2018-03-31T20:51:11.647Z,8.97
2018-03-31T20:53:49.446Z,5.73
2018-03-31T20:56:20.267Z,8.90
2018-03-31T20:58:55.587Z,5.80
2018-03-31T21:01:26.787Z,4.60
2018-03-31T21:03:53.240Z,7.17
2018-03-31T21:06:20.479Z,4.37
2018-03-31T21:08:48.106Z,5.60
2018-03-31T21:11:17.077Z,4.13
2018-03-31T21:13:45.091Z,7.70
2018-03-31T21:16:11.495Z,5.37
2018-03-31T21:18:47.415Z,4.40
2018-03-31T21:21:15.347Z,8.20
2018-03-31T21:23:43.735Z,2.53
2018-03-31T21:26:18.956Z,7.93
2018-03-31T21:28:48.302Z,12.83
2018-03-31T21:31:14.756Z,9.30
2018-03-31T21:33:43.684Z,6.00
2018-03-31T21:36:10.090Z,7.37
2018-03-31T21:38:38.176Z,13.70
2018-03-31T21:41:06.495Z,15.27
2018-03-31T21:43:35.574Z,5.30
2018-03-31T21:46:20.752Z,5.57
2018-03-31T21:48:49.162Z,4.77
2018-03-31T21:51:16.391Z,6.33
2018-03-31T21:53:44.328Z,4.10
2018-03-31T21:56:12.498Z,3.00
2018-03-31T21:58:40.095Z,4.60
2018-03-31T22:01:08.183Z,5.03
2018-03-31T22:03:36.325Z,3.90
2018-03-31T22:06:04.303Z,5.20
2018-03-31T22:08:31.502Z,9.40
2018-03-31T22:10:57.776Z,6.57
2018-03-31T22:13:31.035Z,5.97
2018-03-31T22:16:03.792Z,5.73
2018-03-31T22:18:31.716Z,5.97
2018-03-31T22:20:59.059Z,5.63
2018-03-31T22:23:26.246Z,9.23
2018-03-31T22:25:58.419Z,10.83
2018-03-31T22:28:39.269Z,5.17
2018-03-31T22:31:13.743Z,4.13
2018-03-31T22:33:46.304Z,8.67
2018-03-31T22:36:13.423Z,16.40
2018-03-31T22:38:56.090Z,12.70
2018-03-31T22:41:29.700Z,5.63
2018-03-31T22:43:56.815Z,3.90
2018-03-31T22:46:24.692Z,6.83
2018-03-31T22:48:51.807Z,4.47
2018-03-31T22:51:23.163Z,4.20
2018-03-31T22:53:52.491Z,6.80
2018-03-31T22:56:19.542Z,3.13
2018-03-31T22:58:53.855Z,3.57
2018-03-31T23:01:21.831Z,5.43
2018-03-31T23:03:50.663Z,4.80
2018-03-31T23:06:21.435Z,5.13
2018-03-31T23:09:03.042Z,6.73
2018-03-31T23:11:29.526Z,4.07
2018-03-31T23:13:56.547Z,6.17
2018-03-31T23:16:24.786Z,5.90
2018-03-31T23:18:52.956Z,6.03
2018-03-31T23:21:25.560Z,4.70
2018-03-31T23:23:54.011Z,3.73
2018-03-31T23:26:20.517Z,3.93
2018-03-31T23:28:48.083Z,4.03
2018-03-31T23:31:20.779Z,4.43
2018-03-31T23:33:50.708Z,3.30
2018-03-31T23:36:17.061Z,6.60
2018-03-31T23:38:43.464Z,5.30
2018-03-31T23:41:12.191Z,6.10
2018-03-31T23:43:39.342Z,4.70
2018-03-31T23:46:11.871Z,6.07
2018-03-31T23:48:39.815Z,4.23
2018-03-31T23:51:07.623Z,4.93
2018-03-31T23:53:34.831Z,5.10
2018-03-31T23:56:03.055Z,5.20
2018-03-31T23:58:43.354Z,4.80
